createdAt,value
2023-05-19T00:04:07.726Z,101138.16
2023-05-19T00:06:38.423Z,101129.75
2023-05-19T00:09:09.746Z,101129.09
2023-05-19T00:11:39.115Z,101144.00
2023-05-19T00:14:07.867Z,101133.44
2023-05-19T00:16:37.928Z,101116.94
2023-05-19T00:19:06.490Z,101095.97
2023-05-19T00:21:33.900Z,101131.41
2023-05-19T00:24:02.272Z,101128.03
2023-05-19T00:26:29.543Z,101124.50
2023-05-19T00:28:56.573Z,101135.03
2023-05-19T00:31:24.256Z,101128.81
2023-05-19T00:33:52.109Z,101128.53
2023-05-19T00:36:19.373Z,101116.59
2023-05-19T00:38:46.491Z,101122.66
2023-05-19T00:41:15.205Z,101130.16
2023-05-19T00:43:42.301Z,101133.66
2023-05-19T00:46:11.088Z,101132.84
2023-05-19T00:48:39.455Z,101087.97
2023-05-19T00:51:07.107Z,101130.69
2023-05-19T00:53:35.467Z,101084.47
2023-05-19T00:56:03.744Z,101126.44
2023-05-19T00:58:33.667Z,101131.78
2023-05-19T01:01:05.315Z,101123.75
2023-05-19T01:03:35.213Z,101129.25
2023-05-19T01:06:07.242Z,101136.16
2023-05-19T01:08:37.735Z,101138.13
2023-05-19T01:11:06.807Z,101140.59
2023-05-19T01:13:35.611Z,101136.25
2023-05-19T01:16:07.615Z,101136.91
2023-05-19T01:18:46.391Z,101124.16
2023-05-19T01:21:44.498Z,101129.03
2023-05-19T01:24:33.448Z,101124.91
2023-05-19T01:27:31.484Z,101081.84
2023-05-19T01:30:25.883Z,101106.09
2023-05-19T01:32:57.296Z,101121.28
2023-05-19T01:35:26.242Z,101115.44
2023-05-19T01:37:56.478Z,101118.81
2023-05-19T01:40:25.310Z,101119.94
2023-05-19T01:42:56.629Z,101131.38
2023-05-19T01:45:26.427Z,101134.66
2023-05-19T01:47:56.944Z,101136.97
2023-05-19T01:50:23.977Z,101136.56
2023-05-19T01:52:52.099Z,101133.69
2023-05-19T01:55:19.312Z,101139.56
2023-05-19T01:58:00.158Z,101139.47
2023-05-19T02:00:37.736Z,101136.13
2023-05-19T02:03:17.533Z,101143.28
2023-05-19T02:05:52.476Z,101136.59
2023-05-19T02:08:27.155Z,101106.47
2023-05-19T02:11:00.695Z,101134.00
2023-05-19T02:13:36.546Z,101129.41
2023-05-19T02:16:06.480Z,101140.88
2023-05-19T02:18:35.382Z,101124.38
2023-05-19T02:21:02.814Z,101146.09
2023-05-19T02:23:31.144Z,101143.31
2023-05-19T02:25:58.277Z,101129.00
2023-05-19T02:28:28.373Z,101162.06
2023-05-19T02:30:55.486Z,101151.66
2023-05-19T02:33:26.152Z,101135.69
2023-05-19T02:35:53.476Z,101121.78
2023-05-19T02:38:21.431Z,101139.91
2023-05-19T02:40:48.784Z,101155.09
2023-05-19T02:43:16.132Z,101150.06
2023-05-19T02:45:43.115Z,101140.09
2023-05-19T02:48:10.762Z,101125.06
2023-05-19T02:50:39.621Z,101135.69
2023-05-19T02:53:06.949Z,101121.91
2023-05-19T02:55:33.877Z,101121.91
2023-05-19T02:58:01.593Z,101143.03
2023-05-19T03:00:28.642Z,101128.94
2023-05-19T03:02:55.972Z,101146.75
2023-05-19T03:05:23.065Z,101141.63
2023-05-19T03:07:51.916Z,101142.84
2023-05-19T03:10:18.982Z,101128.41
2023-05-19T03:12:47.060Z,101143.72
2023-05-19T03:15:15.132Z,101145.06
2023-05-19T03:17:42.798Z,101095.69
2023-05-19T03:20:11.023Z,101139.72
2023-05-19T03:22:38.332Z,101147.75
2023-05-19T03:25:07.552Z,101145.25
2023-05-19T03:27:34.769Z,101136.81
2023-05-19T03:30:02.704Z,101147.28
2023-05-19T03:32:32.937Z,101149.72
2023-05-19T03:34:59.862Z,101155.91
2023-05-19T03:37:27.020Z,101152.94
2023-05-19T03:39:54.382Z,101130.22
2023-05-19T03:42:23.072Z,101162.78
2023-05-19T03:44:50.058Z,101163.22
2023-05-19T03:47:17.411Z,101163.09
2023-05-19T03:49:44.402Z,101159.56
2023-05-19T03:52:13.009Z,101157.03
2023-05-19T03:54:42.180Z,101169.25
2023-05-19T03:57:10.202Z,101174.47
2023-05-19T03:59:38.627Z,101174.34
2023-05-19T04:02:06.034Z,101172.34
2023-05-19T04:04:33.675Z,101176.88
2023-05-19T04:07:01.307Z,101174.03
2023-05-19T04:09:28.598Z,101175.56
2023-05-19T04:11:55.931Z,101113.09
2023-05-19T04:14:23.643Z,101175.63
2023-05-19T04:16:53.772Z,101176.34
2023-05-19T04:19:20.805Z,101171.81
2023-05-19T04:21:47.989Z,101171.47
2023-05-19T04:24:15.330Z,101125.72
2023-05-19T04:26:46.020Z,101139.19
2023-05-19T04:29:13.966Z,101133.44
2023-05-19T04:31:42.074Z,101151.19
2023-05-19T04:34:10.526Z,101159.44
2023-05-19T04:36:38.548Z,101163.34
2023-05-19T04:39:09.389Z,101158.41
2023-05-19T04:41:40.195Z,101165.91
2023-05-19T04:44:09.068Z,101138.13
2023-05-19T04:46:36.556Z,101166.53
2023-05-19T04:49:03.744Z,101172.84
2023-05-19T04:51:32.495Z,101148.88
2023-05-19T04:53:59.492Z,101177.41
2023-05-19T04:56:27.409Z,101159.81
2023-05-19T04:58:54.470Z,101171.38
2023-05-19T05:01:26.442Z,101136.56
2023-05-19T05:03:59.215Z,101118.59
2023-05-19T05:06:28.730Z,101178.50
2023-05-19T05:08:57.710Z,101124.09
2023-05-19T05:11:25.798Z,101166.34
2023-05-19T05:13:53.726Z,101158.53
2023-05-19T05:16:21.546Z,101187.22
2023-05-19T05:18:49.174Z,101180.63
2023-05-19T05:21:17.017Z,101164.66
2023-05-19T05:23:44.590Z,101177.88
2023-05-19T05:26:19.012Z,101190.50
2023-05-19T05:28:46.037Z,101184.72
2023-05-19T05:31:13.675Z,101193.41
2023-05-19T05:33:41.526Z,101195.09
2023-05-19T05:36:09.944Z,101197.03
2023-05-19T05:38:37.071Z,101200.22
2023-05-19T05:41:04.703Z,101195.94
2023-05-19T05:43:34.947Z,101206.72
2023-05-19T05:46:03.678Z,101192.25
2023-05-19T05:48:31.274Z,101200.91
2023-05-19T05:51:00.025Z,101193.88
2023-05-19T05:53:30.993Z,101215.13
2023-05-19T05:55:58.770Z,101204.38
2023-05-19T05:58:25.915Z,101207.97
2023-05-19T06:00:57.667Z,101206.72
2023-05-19T06:03:25.025Z,101222.97
2023-05-19T06:08:34.265Z,101226.91
2023-05-19T06:11:01.734Z,101191.81
2023-05-19T06:13:28.999Z,101232.72
2023-05-19T06:15:58.798Z,101235.50
2023-05-19T06:18:27.911Z,101206.25
2023-05-19T06:20:55.316Z,101243.00
2023-05-19T06:23:22.772Z,101227.53
2023-05-19T06:25:50.018Z,101248.75
2023-05-19T06:28:17.068Z,101247.88
2023-05-19T06:30:44.471Z,101229.81
2023-05-19T06:33:13.429Z,101252.97
2023-05-19T06:35:41.049Z,101260.91
2023-05-19T06:38:08.082Z,101231.78
2023-05-19T06:40:37.030Z,101257.44
2023-05-19T06:43:04.965Z,101224.00
2023-05-19T06:45:32.373Z,101283.00
2023-05-19T06:48:00.685Z,101218.25
2023-05-19T06:50:29.557Z,101274.63
2023-05-19T06:52:57.342Z,101214.44
2023-05-19T06:55:25.208Z,101211.94
2023-05-19T06:57:52.246Z,101291.38
2023-05-19T07:00:31.123Z,101211.50
2023-05-19T07:02:58.572Z,101277.47
2023-05-19T07:05:26.286Z,101273.06
2023-05-19T07:07:55.131Z,101256.63
2023-05-19T07:10:22.625Z,101207.13
2023-05-19T07:12:49.830Z,101217.22
2023-05-19T07:15:17.194Z,101270.41
2023-05-19T07:17:44.361Z,101209.75
2023-05-19T07:20:12.631Z,101252.25
2023-05-19T07:22:40.228Z,101274.59
2023-05-19T07:25:09.948Z,101250.03
2023-05-19T07:27:37.498Z,101216.97
2023-05-19T07:30:05.490Z,101161.06
2023-05-19T07:32:32.673Z,101188.59
2023-05-19T07:35:00.088Z,101198.19
2023-05-19T07:37:27.486Z,101257.13
2023-05-19T07:39:54.668Z,101194.22
2023-05-19T07:42:23.147Z,101184.16
2023-05-19T07:44:50.636Z,101189.50
2023-05-19T07:47:19.097Z,101207.31
2023-05-19T07:49:48.605Z,101202.59
2023-05-19T07:52:18.262Z,101230.88
2023-05-19T07:54:45.702Z,101264.56
2023-05-19T07:57:12.861Z,101260.88
2023-05-19T07:59:41.768Z,101268.25
2023-05-19T08:02:08.971Z,101198.47
2023-05-19T08:04:36.779Z,101196.56
2023-05-19T08:07:04.221Z,101220.31
2023-05-19T08:09:31.699Z,101237.97
2023-05-19T08:12:01.517Z,101197.28
2023-05-19T08:14:28.831Z,101191.09
2023-05-19T08:16:57.183Z,101196.31
2023-05-19T08:19:24.569Z,101190.88
2023-05-19T08:21:51.601Z,101259.47
2023-05-19T08:24:19.730Z,101270.38
2023-05-19T08:26:46.794Z,101232.78
2023-05-19T08:29:14.200Z,101207.41
2023-05-19T08:31:41.487Z,101205.91
2023-05-19T08:34:10.605Z,101213.69
2023-05-19T08:36:37.964Z,101268.28
2023-05-19T08:39:06.783Z,101276.59
2023-05-19T08:41:34.148Z,101195.75
2023-05-19T08:44:01.822Z,101216.31
2023-05-19T08:46:29.525Z,101282.69
2023-05-19T08:49:02.064Z,101217.66
2023-05-19T08:51:39.153Z,101209.09
2023-05-19T08:54:14.684Z,101217.28
2023-05-19T08:56:43.583Z,101216.13
2023-05-19T08:59:12.054Z,101279.47
2023-05-19T09:01:39.934Z,101213.28
2023-05-19T09:04:07.737Z,101197.31
2023-05-19T09:06:36.248Z,101210.91
2023-05-19T09:09:04.039Z,101270.53
2023-05-19T09:11:31.020Z,101207.88
2023-05-19T09:13:58.584Z,101186.53
2023-05-19T09:16:27.863Z,101272.47
2023-05-19T09:18:58.596Z,101269.56
2023-05-19T09:21:32.078Z,101193.84
2023-05-19T09:24:05.141Z,101193.91
2023-05-19T09:26:37.660Z,101225.09
2023-05-19T09:29:11.425Z,101271.94
2023-05-19T09:31:38.470Z,101274.91
2023-05-19T09:34:12.996Z,101208.44
2023-05-19T09:36:41.557Z,101264.13
2023-05-19T09:39:16.536Z,101256.34
2023-05-19T09:41:44.163Z,101243.59
2023-05-19T09:44:21.707Z,101255.59
2023-05-19T09:46:49.561Z,101207.16
2023-05-19T09:49:21.861Z,101195.13
2023-05-19T09:51:54.711Z,101205.41
2023-05-19T09:54:24.537Z,101252.25
2023-05-19T09:56:56.702Z,101248.25
2023-05-19T09:59:25.344Z,101193.59
2023-05-19T10:01:55.385Z,101167.19
2023-05-19T10:04:23.467Z,101220.44
2023-05-19T10:06:54.246Z,101223.88
2023-05-19T10:09:25.685Z,101165.88
2023-05-19T10:11:53.830Z,101186.16
2023-05-19T10:14:24.581Z,101177.91
2023-05-19T10:16:52.770Z,101227.22
2023-05-19T10:19:22.589Z,101221.19
2023-05-19T10:21:50.710Z,101191.84
2023-05-19T10:24:18.965Z,101181.50
2023-05-19T10:26:51.557Z,101180.03
2023-05-19T10:29:23.244Z,101215.88
2023-05-19T10:31:53.339Z,101237.69
2023-05-19T10:34:43.837Z,101219.63
2023-05-19T10:37:17.137Z,101222.75
2023-05-19T10:39:45.016Z,101168.50
2023-05-19T10:42:16.992Z,101156.47
2023-05-19T10:44:58.451Z,101179.50
2023-05-19T10:47:26.309Z,101180.50
2023-05-19T10:49:54.238Z,101141.72
2023-05-19T10:52:22.906Z,101152.13
2023-05-19T10:54:51.438Z,101075.53
2023-05-19T10:57:20.938Z,101144.19
2023-05-19T10:59:49.610Z,101152.44
2023-05-19T11:02:41.213Z,101138.69
2023-05-19T11:05:09.841Z,101193.97
2023-05-19T11:07:37.073Z,101083.97
2023-05-19T11:10:07.849Z,101135.88
2023-05-19T11:12:45.587Z,101135.44
2023-05-19T11:15:14.503Z,101188.59
2023-05-19T11:17:46.307Z,101137.16
2023-05-19T11:20:22.533Z,101135.16
2023-05-19T11:23:04.550Z,101059.53
2023-05-19T11:25:46.766Z,101130.53
2023-05-19T11:28:25.696Z,101060.50
2023-05-19T11:30:54.989Z,101105.31
2023-05-19T11:33:27.187Z,101116.69
2023-05-19T11:35:57.920Z,101110.41
2023-05-19T11:38:26.234Z,101131.66
2023-05-19T11:40:53.908Z,101115.78
2023-05-19T11:43:24.717Z,101153.91
2023-05-19T11:45:51.886Z,101172.84
2023-05-19T11:48:21.496Z,101105.50
2023-05-19T11:50:48.647Z,101119.75
2023-05-19T11:53:19.962Z,101190.56
2023-05-19T11:55:48.569Z,101196.75
2023-05-19T11:58:16.834Z,101166.06
2023-05-19T12:00:47.538Z,101110.56
2023-05-19T12:03:15.632Z,101056.66
2023-05-19T12:05:46.046Z,101185.22
2023-05-19T12:08:14.599Z,101187.91
2023-05-19T12:10:42.032Z,101181.63
2023-05-19T12:13:10.505Z,101189.91
2023-05-19T12:15:38.106Z,101191.03
2023-05-19T12:18:07.289Z,101136.09
2023-05-19T12:20:38.045Z,101131.03
2023-05-19T12:23:05.897Z,101143.97
2023-05-19T12:25:33.369Z,101188.97
2023-05-19T12:28:05.077Z,101105.47
2023-05-19T12:30:33.785Z,101137.06
2023-05-19T12:33:03.418Z,101127.25
2023-05-19T12:35:36.318Z,101131.84
2023-05-19T12:38:04.792Z,101131.03
2023-05-19T12:40:33.952Z,101121.88
2023-05-19T12:43:01.677Z,101122.69
2023-05-19T12:45:29.018Z,101106.41
2023-05-19T12:47:56.698Z,101190.59
2023-05-19T12:50:30.564Z,101186.84
2023-05-19T12:53:00.014Z,101140.69
2023-05-19T12:55:27.319Z,101193.94
2023-05-19T12:57:57.160Z,101194.13
2023-05-19T13:00:32.727Z,101199.19
2023-05-19T13:03:02.807Z,101142.66
2023-05-19T13:05:31.502Z,101129.44
2023-05-19T13:08:05.287Z,101188.81
2023-05-19T13:10:34.073Z,101117.97
2023-05-19T13:13:02.524Z,101159.16
2023-05-19T13:15:34.394Z,101183.88
2023-05-19T13:18:06.326Z,101128.97
2023-05-19T13:20:34.521Z,101104.38
2023-05-19T13:23:03.724Z,101149.50
2023-05-19T13:25:31.052Z,101122.66
2023-05-19T13:28:01.231Z,101007.84
2023-05-19T13:30:28.508Z,101134.16
2023-05-19T13:32:55.921Z,101135.69
2023-05-19T13:35:23.234Z,101070.56
2023-05-19T13:37:50.977Z,101109.16
2023-05-19T13:40:20.385Z,101131.50
2023-05-19T13:42:48.211Z,101101.84
2023-05-19T13:45:15.702Z,101049.25
2023-05-19T13:47:43.171Z,101123.75
2023-05-19T13:50:11.038Z,101127.72
2023-05-19T13:52:38.416Z,101128.94
2023-05-19T13:55:07.052Z,101079.34
2023-05-19T13:57:35.769Z,101067.72
2023-05-19T14:00:04.596Z,101061.72
2023-05-19T14:02:33.846Z,101062.75
2023-05-19T14:05:01.028Z,101111.53
2023-05-19T14:07:28.401Z,101039.97
2023-05-19T14:09:55.514Z,101036.03
2023-05-19T14:12:27.973Z,101090.59
2023-05-19T14:15:03.426Z,101080.22
2023-05-19T14:17:31.864Z,101048.50
2023-05-19T14:20:00.671Z,101065.88
2023-05-19T14:22:28.299Z,100998.44
2023-05-19T14:24:55.514Z,100989.28
2023-05-19T14:27:22.923Z,100983.06
2023-05-19T14:29:50.353Z,100945.09
2023-05-19T14:32:19.739Z,101049.88
2023-05-19T14:34:47.542Z,101021.06
2023-05-19T14:37:14.793Z,100989.63
2023-05-19T14:39:41.858Z,101061.81
2023-05-19T14:42:09.164Z,101060.97
2023-05-19T14:44:37.629Z,100976.13
2023-05-19T14:47:07.538Z,101001.09
2023-05-19T14:49:38.612Z,101062.72
2023-05-19T14:52:07.301Z,100999.50
2023-05-19T14:54:34.569Z,101062.31
2023-05-19T14:57:03.035Z,100992.31
2023-05-19T14:59:30.347Z,101041.97
2023-05-19T15:01:57.764Z,101054.69
2023-05-19T15:04:25.152Z,100999.75
2023-05-19T15:07:05.682Z,101076.22
2023-05-19T15:09:37.742Z,101072.72
2023-05-19T15:12:05.550Z,101065.25
2023-05-19T15:14:32.643Z,101062.38
2023-05-19T15:17:00.294Z,100993.44
2023-05-19T15:19:27.558Z,101055.22
2023-05-19T15:21:56.498Z,100990.97
2023-05-19T15:24:25.142Z,100998.00
2023-05-19T15:26:52.577Z,101043.28
2023-05-19T15:29:19.714Z,100986.75
2023-05-19T15:31:50.229Z,101051.34
2023-05-19T15:34:18.336Z,101038.31
2023-05-19T15:36:45.802Z,101038.31
2023-05-19T15:39:14.605Z,100983.84
2023-05-19T15:41:41.949Z,101054.53
2023-05-19T15:44:09.224Z,101061.81
2023-05-19T15:46:36.735Z,101000.72
2023-05-19T15:49:04.296Z,101058.84
2023-05-19T15:51:32.263Z,101052.78
2023-05-19T15:53:59.666Z,101058.97
2023-05-19T15:56:28.364Z,101067.22
2023-05-19T15:58:55.329Z,101067.81
2023-05-19T16:01:22.882Z,101067.63
2023-05-19T16:03:50.428Z,101074.78
2023-05-19T16:06:17.983Z,100988.72
2023-05-19T16:08:45.210Z,101073.56
2023-05-19T16:11:12.557Z,101066.00
2023-05-19T16:13:41.537Z,101079.84
2023-05-19T16:16:09.601Z,101029.06
2023-05-19T16:18:36.842Z,101084.13
2023-05-19T16:21:04.586Z,101027.09
2023-05-19T16:23:31.864Z,101057.41
2023-05-19T16:26:00.416Z,101096.41
2023-05-19T16:28:28.830Z,101106.50
2023-05-19T16:30:59.687Z,101101.84
2023-05-19T16:33:27.280Z,101102.44
2023-05-19T16:35:54.772Z,101037.41
2023-05-19T16:38:21.838Z,101112.41
2023-05-19T16:40:49.204Z,101108.91
2023-05-19T16:43:16.279Z,101041.22
2023-05-19T16:45:43.589Z,101122.69
2023-05-19T16:48:12.269Z,101120.00
2023-05-19T16:50:39.937Z,101066.94
2023-05-19T16:53:07.200Z,101048.47
2023-05-19T16:55:34.720Z,101118.63
2023-05-19T16:58:01.731Z,101064.00
2023-05-19T17:00:29.858Z,101069.06
2023-05-19T17:02:57.020Z,101063.75
2023-05-19T17:05:27.296Z,101058.53
2023-05-19T17:07:54.453Z,101137.50
2023-05-19T17:10:22.142Z,101143.22
2023-05-19T17:12:49.304Z,101077.97
2023-05-19T17:15:16.809Z,101087.59
2023-05-19T17:17:43.827Z,101149.31
2023-05-19T17:20:13.331Z,101112.97
2023-05-19T17:22:41.859Z,101153.13
2023-05-19T17:25:09.652Z,101151.84
2023-05-19T17:27:36.889Z,101077.59
2023-05-19T17:30:04.876Z,101152.28
2023-05-19T17:32:35.935Z,101153.94
2023-05-19T17:35:05.405Z,101124.22
2023-05-19T17:37:33.252Z,101150.88
2023-05-19T17:40:02.089Z,101125.75
2023-05-19T17:42:31.716Z,101145.56
2023-05-19T17:44:59.475Z,101144.84
2023-05-19T17:47:26.565Z,101089.34
2023-05-19T17:49:54.105Z,101084.47
2023-05-19T17:52:21.819Z,101082.75
2023-05-19T17:54:50.593Z,101089.47
2023-05-19T17:57:20.226Z,101110.94
2023-05-19T17:59:48.175Z,101093.88
2023-05-19T18:02:15.991Z,101153.03
2023-05-19T18:04:43.797Z,101157.75
2023-05-19T18:07:12.009Z,101158.78
2023-05-19T18:12:43.470Z,101090.63
2023-05-19T18:15:11.908Z,101083.28
2023-05-19T18:17:38.968Z,101090.03
2023-05-19T18:20:07.938Z,101166.88
2023-05-19T18:22:34.920Z,101158.53
2023-05-19T18:25:02.324Z,101093.91
2023-05-19T18:27:29.879Z,101150.28
2023-05-19T18:29:58.818Z,101125.69
2023-05-19T18:32:25.708Z,101155.50
2023-05-19T18:34:53.065Z,101115.25
2023-05-19T18:37:21.789Z,101118.78
2023-05-19T18:39:49.235Z,101151.97
2023-05-19T18:42:16.694Z,101107.88
2023-05-19T18:44:47.596Z,101158.00
2023-05-19T18:47:16.455Z,101142.97
2023-05-19T18:49:43.737Z,101152.56
2023-05-19T18:52:11.212Z,101151.53
2023-05-19T18:54:38.876Z,101081.31
2023-05-19T18:57:06.641Z,101147.00
2023-05-19T18:59:34.009Z,101074.41
2023-05-19T19:02:01.273Z,101089.03
2023-05-19T19:04:31.485Z,101070.56
2023-05-19T19:06:58.948Z,101088.72
2023-05-19T19:09:26.366Z,101134.50
2023-05-19T19:11:53.459Z,101141.72
2023-05-19T19:14:24.132Z,101140.38
2023-05-19T19:16:51.231Z,101060.66
2023-05-19T19:19:18.689Z,101066.00
2023-05-19T19:21:47.318Z,101009.16
2023-05-19T19:24:14.674Z,101134.91
2023-05-19T19:26:41.961Z,101130.53
2023-05-19T19:29:09.681Z,101138.94
2023-05-19T19:31:36.785Z,101081.94
2023-05-19T19:34:09.167Z,101057.09
2023-05-19T19:36:36.408Z,101060.97
2023-05-19T19:39:05.240Z,101131.41
2023-05-19T19:41:33.452Z,101006.66
2023-05-19T19:44:00.801Z,101127.19
2023-05-19T19:46:27.946Z,101124.69
2023-05-19T19:48:57.242Z,101061.81
2023-05-19T19:51:24.693Z,101067.22
2023-05-19T19:53:51.995Z,101043.91
2023-05-19T19:56:22.193Z,101074.59
2023-05-19T19:58:49.534Z,101059.06
2023-05-19T20:01:16.695Z,101136.25
2023-05-19T20:04:19.923Z,101131.06
2023-05-19T20:06:47.384Z,101075.03
2023-05-19T20:09:14.773Z,101079.25
2023-05-19T20:11:43.603Z,101067.31
2023-05-19T20:14:11.135Z,101070.19
2023-05-19T20:16:40.400Z,101070.84
2023-05-19T20:19:09.354Z,101138.81
2023-05-19T20:21:36.729Z,101059.81
2023-05-19T20:24:04.484Z,101056.28
2023-05-19T20:26:31.656Z,101071.19
2023-05-19T20:29:00.441Z,101056.06
2023-05-19T20:31:27.524Z,101095.47
2023-05-19T20:33:54.995Z,101109.75
2023-05-19T20:36:22.163Z,101080.72
2023-05-19T20:38:49.527Z,101100.16
2023-05-19T20:41:16.635Z,101077.56
2023-05-19T20:43:44.284Z,101131.22
2023-05-19T20:46:12.911Z,101124.81
2023-05-19T20:48:40.623Z,101128.88
2023-05-19T20:51:07.752Z,101132.06
2023-05-19T20:53:36.480Z,101109.13
2023-05-19T20:56:05.276Z,101124.69
2023-05-19T20:58:32.697Z,100995.53
2023-05-19T21:00:59.726Z,101130.56
2023-05-19T21:03:28.784Z,101000.25
2023-05-19T21:05:55.740Z,101135.97
2023-05-19T21:08:23.511Z,101078.63
2023-05-19T21:10:51.032Z,101142.75
2023-05-19T21:13:18.682Z,101071.28
2023-05-19T21:15:46.164Z,101092.88
2023-05-19T21:18:13.568Z,101109.00
2023-05-19T21:20:42.078Z,101125.44
2023-05-19T21:23:09.404Z,101116.53
2023-05-19T21:25:36.446Z,101070.06
2023-05-19T21:28:03.949Z,101113.50
2023-05-19T21:30:31.341Z,101048.91
2023-05-19T21:32:58.850Z,101027.09
2023-05-19T21:35:26.427Z,101027.94
2023-05-19T21:37:55.764Z,101104.44
2023-05-19T21:40:22.871Z,101046.41
2023-05-19T21:42:50.288Z,101027.28
2023-05-19T21:45:17.569Z,101104.75
2023-05-19T21:47:45.126Z,101043.53
2023-05-19T21:50:15.729Z,101101.06
2023-05-19T21:52:43.268Z,101042.06
2023-05-19T21:55:11.891Z,101011.31
2023-05-19T21:57:39.299Z,101026.94
2023-05-19T22:00:08.213Z,101107.81
2023-05-19T22:02:35.843Z,101104.16
2023-05-19T22:05:03.148Z,101031.97
2023-05-19T22:07:30.419Z,101065.38
2023-05-19T22:09:57.574Z,101021.22
2023-05-19T22:12:26.493Z,101097.44
2023-05-19T22:14:53.520Z,101055.28
2023-05-19T22:17:21.226Z,100995.41
2023-05-19T22:19:48.297Z,100957.53
2023-05-19T22:22:15.878Z,101018.03
2023-05-19T22:24:43.100Z,101011.00
2023-05-19T22:27:10.581Z,101070.56
2023-05-19T22:29:39.119Z,101012.69
2023-05-19T22:32:07.674Z,101069.06
2023-05-19T22:34:35.009Z,101062.19
2023-05-19T22:37:02.532Z,100983.50
2023-05-19T22:39:29.522Z,101055.13
2023-05-19T22:41:56.818Z,100976.78
2023-05-19T22:44:23.993Z,100977.06
2023-05-19T22:46:52.790Z,100986.19
2023-05-19T22:49:20.980Z,101045.91
2023-05-19T22:51:48.455Z,100976.25
2023-05-19T22:54:15.741Z,101022.06
2023-05-19T22:56:46.371Z,101060.97
2023-05-19T22:59:13.814Z,100972.69
2023-05-19T23:01:41.207Z,100970.16
2023-05-19T23:04:11.527Z,100975.97
2023-05-19T23:06:38.826Z,101000.53
2023-05-19T23:09:05.923Z,100981.03
2023-05-19T23:11:33.185Z,101055.38
2023-05-19T23:14:00.635Z,100974.97
2023-05-19T23:16:28.048Z,101013.88
2023-05-19T23:18:55.609Z,100974.44
2023-05-19T23:21:24.538Z,101037.91
2023-05-19T23:23:51.972Z,100939.84
2023-05-19T23:26:19.254Z,101042.06
2023-05-19T23:28:46.239Z,100966.00
2023-05-19T23:31:13.714Z,100968.16
2023-05-19T23:33:46.142Z,101054.06
2023-05-19T23:36:13.756Z,101041.81
2023-05-19T23:38:42.200Z,101047.28
2023-05-19T23:41:09.621Z,100965.78
2023-05-19T23:43:37.820Z,100969.94
2023-05-19T23:46:05.228Z,101035.13
2023-05-19T23:48:33.643Z,100960.16
2023-05-19T23:51:01.231Z,100925.16
2023-05-19T23:53:28.450Z,101038.78
2023-05-19T23:55:58.713Z,100968.03
2023-05-19T23:58:26.057Z,101034.09
